createdAt,value
2022-09-25T00:00:39.684Z,29.65
2022-09-25T00:03:38.739Z,26.80
2022-09-25T00:06:20.682Z,26.55
2022-09-25T00:09:10.185Z,27.10
2022-09-25T00:11:50.695Z,23.90
2022-09-25T00:14:31.758Z,21.63
2022-09-25T00:17:11.742Z,24.02
2022-09-25T00:19:52.866Z,23.70
2022-09-25T00:22:34.683Z,23.20
2022-09-25T00:25:18.839Z,49.30
2022-09-25T00:28:00.678Z,57.75
2022-09-25T00:30:48.726Z,30.77
2022-09-25T00:33:22.703Z,27.23
2022-09-25T00:36:13.703Z,32.10
2022-09-25T00:38:48.940Z,21.23
2022-09-25T00:41:40.691Z,24.05
2022-09-25T00:44:33.327Z,24.13
2022-09-25T00:47:20.683Z,24.23
2022-09-25T00:49:55.865Z,27.83
2022-09-25T00:52:43.704Z,28.17
2022-09-25T00:55:17.778Z,30.55
2022-09-25T00:58:07.704Z,28.92
2022-09-25T01:00:48.698Z,28.67
2022-09-25T01:03:36.690Z,26.17
2022-09-25T01:06:18.698Z,28.75
2022-09-25T01:08:59.754Z,27.05
2022-09-25T01:11:40.697Z,26.52
2022-09-25T01:14:21.750Z,28.60
2022-09-25T01:17:01.723Z,27.48
2022-09-25T01:20:05.763Z,26.20
2022-09-25T01:23:04.670Z,26.95
2022-09-25T01:26:01.742Z,28.38
2022-09-25T01:29:01.789Z,26.75
2022-09-25T01:32:09.721Z,30.33
2022-09-25T01:35:00.695Z,30.23
2022-09-25T01:38:00.697Z,28.20
2022-09-25T01:40:36.691Z,31.50
2022-09-25T01:43:24.705Z,31.57
2022-09-25T01:46:02.778Z,33.75
2022-09-25T01:48:50.706Z,29.77
2022-09-25T01:51:38.723Z,32.00
2022-09-25T01:54:20.934Z,32.65
2022-09-25T01:57:06.706Z,34.03
2022-09-25T02:00:12.693Z,34.35
2022-09-25T02:02:49.450Z,35.88
2022-09-25T02:05:45.703Z,33.53
2022-09-25T02:08:31.699Z,33.03
2022-09-25T02:11:14.358Z,32.67
2022-09-25T02:14:00.695Z,33.05
2022-09-25T02:16:44.868Z,35.70
2022-09-25T02:19:44.703Z,36.00
2022-09-25T02:22:26.845Z,30.35
2022-09-25T02:25:46.703Z,32.10
2022-09-25T02:28:34.688Z,30.35
2022-09-25T02:31:10.808Z,28.70
2022-09-25T02:33:58.702Z,26.83
2022-09-25T02:36:33.884Z,27.08
2022-09-25T02:39:21.738Z,24.75
2022-09-25T02:42:14.215Z,24.38
2022-09-25T02:45:10.713Z,23.30
2022-09-25T02:48:03.273Z,22.08
2022-09-25T02:51:10.711Z,19.08
2022-09-25T02:54:20.712Z,17.13
2022-09-25T02:57:04.362Z,15.27
2022-09-25T03:00:00.709Z,14.65
2022-09-25T03:02:52.442Z,15.15
2022-09-25T03:05:33.738Z,20.17
2022-09-25T03:08:33.723Z,21.25
2022-09-25T03:11:22.710Z,23.42
2022-09-25T03:14:07.765Z,21.38
2022-09-25T03:17:03.722Z,23.13
2022-09-25T03:19:44.794Z,24.98
2022-09-25T03:22:25.721Z,29.75
2022-09-25T03:25:13.705Z,32.97
2022-09-25T03:27:47.656Z,33.53
2022-09-25T03:30:35.807Z,28.48
2022-09-25T03:33:11.184Z,30.38
2022-09-25T03:35:58.715Z,33.65
2022-09-25T03:38:32.967Z,29.95
2022-09-25T03:41:15.752Z,30.65
2022-09-25T03:43:51.818Z,30.27
2022-09-25T03:46:35.758Z,31.65
2022-09-25T03:49:23.739Z,30.48
2022-09-25T03:52:00.165Z,29.42
2022-09-25T03:54:47.745Z,25.20
2022-09-25T03:57:21.961Z,23.92
2022-09-25T04:00:09.742Z,22.52
2022-09-25T04:02:49.774Z,24.00
2022-09-25T04:05:37.727Z,22.90
2022-09-25T04:08:17.741Z,17.65
2022-09-25T04:11:07.728Z,17.63
2022-09-25T04:13:44.956Z,16.60
2022-09-25T04:16:32.769Z,15.50
2022-09-25T04:19:13.718Z,17.50
2022-09-25T04:22:01.745Z,15.70
2022-09-25T04:24:57.760Z,15.38
2022-09-25T04:27:38.908Z,14.23
2022-09-25T04:30:26.725Z,14.23
2022-09-25T04:33:25.750Z,15.23
2022-09-25T04:36:20.721Z,14.73
2022-09-25T04:39:07.767Z,17.58
2022-09-25T04:41:49.706Z,18.35
2022-09-25T04:44:43.723Z,19.35
2022-09-25T04:49:58.754Z,18.33
2022-09-25T04:52:39.746Z,19.10
2022-09-25T04:55:30.752Z,19.08
2022-09-25T04:58:05.792Z,19.13
2022-09-25T05:00:53.777Z,19.42
2022-09-25T05:03:34.832Z,19.98
2022-09-25T05:06:28.733Z,21.33
2022-09-25T05:11:49.810Z,16.52
2022-09-25T05:14:37.738Z,16.13
2022-09-25T05:17:12.976Z,14.18
2022-09-25T05:19:59.759Z,13.65
2022-09-25T05:22:40.752Z,13.63
2022-09-25T05:25:34.756Z,13.75
2022-09-25T05:28:22.746Z,14.38
2022-09-25T05:30:56.944Z,14.40
2022-09-25T05:33:43.749Z,13.88
2022-09-25T05:36:25.741Z,13.05
2022-09-25T05:39:09.839Z,13.70
2022-09-25T05:42:01.755Z,12.88
2022-09-25T05:44:35.723Z,12.32
2022-09-25T05:47:23.747Z,13.90
2022-09-25T05:49:57.722Z,12.75
2022-09-25T05:52:45.752Z,12.23
2022-09-25T05:55:25.747Z,11.77
2022-09-25T05:58:16.784Z,11.48
2022-09-25T06:00:57.757Z,10.63
2022-09-25T06:03:40.023Z,11.27
2022-09-25T06:06:25.191Z,11.88
2022-09-25T06:09:07.833Z,11.15
2022-09-25T06:11:50.758Z,13.20
2022-09-25T06:14:31.845Z,12.45
2022-09-25T06:17:19.755Z,12.25
2022-09-25T06:19:53.816Z,11.48
2022-09-25T06:22:41.742Z,11.57
2022-09-25T06:25:22.772Z,12.07
2022-09-25T06:28:17.750Z,13.48
2022-09-25T06:31:08.794Z,14.82
2022-09-25T06:33:50.743Z,14.75
2022-09-25T06:36:38.781Z,13.32
2022-09-25T06:39:19.770Z,14.35
2022-09-25T06:42:13.746Z,15.52
2022-09-25T06:45:00.783Z,13.07
2022-09-25T06:47:34.875Z,12.65
2022-09-25T06:50:21.887Z,13.63
2022-09-25T06:53:02.780Z,12.02
2022-09-25T06:55:51.804Z,11.85
2022-09-25T06:58:27.891Z,12.02
2022-09-25T07:01:16.855Z,12.70
2022-09-25T07:04:04.764Z,12.20
2022-09-25T07:06:44.766Z,11.80
2022-09-25T07:09:25.908Z,12.07
2022-09-25T07:12:05.775Z,11.88
2022-09-25T07:14:53.779Z,10.95
2022-09-25T07:17:27.708Z,10.13
2022-09-25T07:20:08.805Z,11.13
2022-09-25T07:22:42.876Z,12.10
2022-09-25T07:25:23.804Z,11.85
2022-09-25T07:28:04.828Z,11.13
2022-09-25T07:30:44.827Z,9.65
2022-09-25T07:33:25.939Z,9.77
2022-09-25T07:36:07.851Z,9.65
2022-09-25T07:38:49.890Z,8.82
2022-09-25T07:41:30.783Z,9.93
2022-09-25T07:44:28.614Z,9.10
2022-09-25T07:47:03.837Z,10.75
2022-09-25T07:49:51.800Z,9.95
2022-09-25T07:52:25.820Z,10.25
2022-09-25T07:55:13.804Z,10.07
2022-09-25T07:57:55.801Z,10.05
2022-09-25T08:00:36.926Z,11.00
2022-09-25T08:03:17.874Z,13.80
2022-09-25T08:06:05.924Z,12.50
2022-09-25T08:08:46.780Z,12.85
2022-09-25T08:11:28.498Z,12.40
2022-09-25T08:14:09.856Z,12.63
2022-09-25T08:16:52.315Z,13.70
2022-09-25T08:19:39.774Z,12.27
2022-09-25T08:22:13.854Z,14.73
2022-09-25T08:25:01.785Z,12.20
2022-09-25T08:27:41.080Z,11.00
2022-09-25T08:30:27.789Z,10.55
2022-09-25T08:33:02.048Z,10.63
2022-09-25T08:35:49.783Z,10.30
2022-09-25T08:38:26.990Z,10.85
2022-09-25T08:41:35.803Z,10.27
2022-09-25T08:44:13.015Z,10.63
2022-09-25T08:47:22.828Z,11.73
2022-09-25T08:50:12.784Z,12.13
2022-09-25T08:53:05.816Z,11.55
2022-09-25T08:56:06.778Z,10.60
2022-09-25T08:58:59.796Z,12.23
2022-09-25T09:01:53.870Z,11.75
2022-09-25T09:04:52.789Z,10.88
2022-09-25T09:07:45.800Z,12.50
2022-09-25T09:10:44.803Z,12.38
2022-09-25T09:13:51.786Z,11.32
2022-09-25T09:16:41.808Z,11.48
2022-09-25T09:22:19.813Z,11.25
2022-09-25T09:25:03.797Z,11.10
2022-09-25T09:28:03.169Z,11.48
2022-09-25T09:30:57.865Z,11.70
2022-09-25T09:33:48.473Z,12.00
2022-09-25T09:36:44.801Z,11.52
2022-09-25T09:39:32.143Z,12.48
2022-09-25T09:42:25.901Z,11.68
2022-09-25T09:45:38.824Z,12.13
2022-09-25T09:48:25.789Z,12.50
2022-09-25T09:51:04.118Z,11.93
2022-09-25T09:53:53.859Z,11.85
2022-09-25T09:56:35.526Z,11.57
2022-09-25T09:59:24.822Z,11.00
2022-09-25T10:02:41.944Z,11.45
2022-09-25T10:05:40.855Z,12.50
2022-09-25T10:08:28.832Z,11.73
2022-09-25T10:11:09.820Z,12.07
2022-09-25T10:13:57.825Z,10.68
2022-09-25T10:16:31.924Z,10.93
2022-09-25T10:19:26.822Z,11.38
2022-09-25T10:22:29.839Z,10.32
2022-09-25T10:25:23.839Z,10.15
2022-09-25T10:28:53.834Z,10.45
2022-09-25T10:31:49.802Z,10.98
2022-09-25T10:34:38.820Z,9.30
2022-09-25T10:37:26.239Z,9.90
2022-09-25T10:40:14.977Z,10.23
2022-09-25T10:42:48.887Z,9.00
2022-09-25T10:45:37.844Z,10.50
2022-09-25T10:49:12.232Z,9.65
2022-09-25T10:52:16.807Z,10.65
2022-09-25T10:55:31.820Z,11.27
2022-09-25T10:58:11.892Z,11.48
2022-09-25T11:01:16.859Z,10.48
2022-09-25T11:04:11.828Z,10.63
2022-09-25T11:07:10.842Z,11.40
2022-09-25T11:09:50.953Z,11.40
2022-09-25T11:12:38.850Z,10.88
2022-09-25T11:15:14.539Z,11.40
2022-09-25T11:18:02.857Z,10.93
2022-09-25T11:20:46.825Z,11.00
2022-09-25T11:23:48.834Z,11.75
2022-09-25T11:26:39.839Z,12.43
2022-09-25T11:29:19.180Z,12.02
2022-09-25T11:32:31.863Z,11.98
2022-09-25T11:35:29.805Z,11.95
2022-09-25T11:38:19.856Z,12.65
2022-09-25T11:41:16.096Z,11.30
2022-09-25T11:44:03.839Z,12.77
2022-09-25T11:47:22.830Z,12.57
2022-09-25T11:50:17.870Z,12.77
2022-09-25T11:53:05.858Z,13.13
2022-09-25T11:55:52.079Z,11.63
2022-09-25T11:58:52.842Z,12.10
2022-09-25T12:01:42.969Z,11.05
2022-09-25T12:04:47.916Z,11.88
2022-09-25T12:07:28.006Z,11.20
2022-09-25T12:10:18.876Z,11.90
2022-09-25T12:13:12.276Z,11.90
2022-09-25T12:16:19.885Z,11.57
2022-09-25T12:19:06.860Z,11.02
2022-09-25T12:24:34.857Z,9.82
2022-09-25T12:27:39.880Z,10.80
2022-09-25T12:30:30.908Z,10.23
2022-09-25T12:33:05.410Z,10.95
2022-09-25T12:36:04.872Z,10.48
2022-09-25T12:38:38.940Z,10.38
2022-09-25T12:41:36.863Z,10.55
2022-09-25T12:44:23.691Z,9.25
2022-09-25T12:47:11.872Z,9.20
2022-09-25T12:49:58.945Z,8.70
2022-09-25T12:52:45.862Z,9.20
2022-09-25T12:55:31.580Z,9.85
2022-09-25T12:58:32.864Z,8.85
2022-09-25T13:01:31.073Z,8.60
2022-09-25T13:04:23.597Z,9.02
2022-09-25T13:07:17.890Z,8.90
2022-09-25T13:09:51.895Z,8.80
2022-09-25T13:12:45.198Z,7.10
2022-09-25T13:15:24.065Z,7.45
2022-09-25T13:18:11.893Z,7.10
2022-09-25T13:20:56.511Z,7.78
2022-09-25T13:23:43.874Z,7.88
2022-09-25T13:26:20.276Z,6.45
2022-09-25T13:29:09.907Z,7.47
2022-09-25T13:32:04.867Z,6.93
2022-09-25T13:34:52.898Z,7.70
2022-09-25T13:37:35.988Z,7.88
2022-09-25T13:40:52.935Z,6.88
2022-09-25T13:43:30.608Z,7.68
2022-09-25T13:46:21.935Z,7.72
2022-09-25T13:49:04.913Z,6.57
2022-09-25T13:51:52.880Z,7.13
2022-09-25T13:54:36.906Z,8.15
2022-09-25T13:57:30.867Z,6.80
2022-09-25T14:00:22.913Z,7.35
2022-09-25T14:03:03.086Z,7.93
2022-09-25T14:05:50.925Z,7.22
2022-09-25T14:08:25.995Z,7.30
2022-09-25T14:11:15.895Z,5.67
2022-09-25T14:13:49.986Z,4.50
2022-09-25T14:16:41.871Z,4.72
2022-09-25T14:19:16.966Z,4.10
2022-09-25T14:22:04.905Z,4.88
2022-09-25T14:24:38.986Z,3.92
2022-09-25T14:27:31.900Z,4.47
2022-09-25T14:30:17.434Z,3.97
2022-09-25T14:33:34.944Z,4.18
2022-09-25T14:36:25.920Z,3.97
2022-09-25T14:39:37.910Z,4.47
2022-09-25T14:42:38.098Z,4.53
2022-09-25T14:45:41.038Z,4.28
2022-09-25T14:48:51.926Z,3.92
2022-09-25T14:51:31.018Z,4.22
2022-09-25T14:54:22.913Z,5.15
2022-09-25T14:57:00.010Z,5.45
2022-09-25T14:59:50.927Z,4.82
2022-09-25T15:02:39.977Z,4.20
2022-09-25T15:05:39.928Z,4.50
2022-09-25T15:08:30.929Z,4.20
2022-09-25T15:11:17.998Z,4.30
2022-09-25T15:14:37.955Z,4.10
2022-09-25T15:17:22.849Z,4.50
2022-09-25T15:20:14.965Z,4.35
2022-09-25T15:23:06.915Z,4.80
2022-09-25T15:25:43.233Z,5.53
2022-09-25T15:28:37.938Z,5.90
2022-09-25T15:31:12.080Z,6.03
2022-09-25T15:34:15.107Z,7.43
2022-09-25T15:36:50.655Z,7.40
2022-09-25T15:39:38.934Z,7.50
2022-09-25T15:42:14.139Z,7.43
2022-09-25T15:45:02.961Z,9.32
2022-09-25T15:47:36.882Z,8.00
2022-09-25T15:50:35.992Z,7.53
2022-09-25T15:53:18.294Z,7.90
2022-09-25T15:56:37.980Z,9.63
2022-09-25T15:59:21.183Z,11.82
2022-09-25T16:02:28.076Z,12.60
2022-09-25T16:05:08.914Z,12.27
2022-09-25T16:07:50.059Z,12.70
2022-09-25T16:10:31.222Z,15.05
2022-09-25T16:13:12.746Z,14.48
2022-09-25T16:15:58.137Z,20.10
2022-09-25T16:18:45.385Z,21.65
2022-09-25T16:21:37.922Z,20.40
2022-09-25T16:24:24.046Z,24.52
2022-09-25T16:27:09.942Z,24.27
2022-09-25T16:29:52.112Z,21.35
2022-09-25T16:32:32.958Z,19.00
2022-09-25T16:35:20.974Z,18.70
2022-09-25T16:37:55.079Z,17.88
2022-09-25T16:40:46.020Z,12.75
2022-09-25T16:43:32.943Z,11.52
2022-09-25T16:49:06.155Z,12.70
2022-09-25T16:51:56.945Z,12.15
2022-09-25T16:54:39.010Z,11.05
2022-09-25T16:57:20.095Z,11.55
2022-09-25T17:00:01.965Z,12.05
2022-09-25T17:02:48.139Z,10.98
2022-09-25T17:05:31.114Z,11.40
2022-09-25T17:08:34.973Z,13.07
2022-09-25T17:11:09.184Z,12.75
2022-09-25T17:13:56.936Z,13.98
2022-09-25T17:16:31.009Z,17.13
2022-09-25T17:19:25.975Z,21.08
2022-09-25T17:22:05.973Z,22.88
2022-09-25T17:24:47.094Z,21.80
2022-09-25T17:27:26.991Z,21.33
2022-09-25T17:30:08.090Z,25.65
2022-09-25T17:32:49.974Z,24.50
2022-09-25T17:35:48.052Z,27.27
2022-09-25T17:38:28.988Z,26.13
2022-09-25T17:41:11.117Z,20.95
2022-09-25T17:43:53.004Z,15.77
2022-09-25T17:46:41.055Z,11.20
2022-09-25T17:49:15.015Z,11.10
2022-09-25T17:52:02.978Z,10.43
2022-09-25T17:54:36.981Z,12.05
2022-09-25T17:57:25.003Z,11.80
2022-09-25T17:59:58.949Z,11.93
2022-09-25T18:02:47.053Z,10.75
2022-09-25T18:05:21.017Z,12.15
2022-09-25T18:08:09.107Z,14.43
2022-09-25T18:11:07.990Z,13.90
2022-09-25T18:13:59.015Z,19.08
2022-09-25T18:16:35.216Z,17.50
2022-09-25T18:19:43.028Z,14.43
2022-09-25T18:22:17.684Z,14.68
2022-09-25T18:25:04.987Z,16.38
2022-09-25T18:27:41.691Z,15.73
2022-09-25T18:30:31.002Z,16.10
2022-09-25T18:33:05.245Z,16.80
2022-09-25T18:35:51.977Z,16.60
2022-09-25T18:38:32.993Z,18.23
2022-09-25T18:41:26.991Z,16.80
2022-09-25T18:44:13.973Z,17.58
2022-09-25T18:46:48.148Z,17.73
2022-09-25T18:49:35.990Z,16.35
2022-09-25T18:52:11.526Z,16.92
2022-09-25T18:54:58.998Z,18.83
2022-09-25T18:57:35.348Z,16.52
2022-09-25T19:00:25.011Z,16.45
2022-09-25T19:03:06.124Z,14.63
2022-09-25T19:06:09.999Z,16.08
2022-09-25T19:09:01.004Z,14.95
2022-09-25T19:11:36.126Z,15.50
2022-09-25T19:14:23.008Z,22.05
2022-09-25T19:16:57.458Z,26.50
2022-09-25T19:19:47.014Z,31.20
2022-09-25T19:22:24.303Z,29.98
2022-09-25T19:25:11.998Z,31.17
2022-09-25T19:27:46.073Z,37.28
2022-09-25T19:30:32.984Z,41.88
2022-09-25T19:33:07.112Z,67.82
2022-09-25T19:36:00.985Z,36.08
2022-09-25T19:38:56.014Z,27.23
2022-09-25T19:41:50.983Z,36.05
2022-09-25T19:44:40.033Z,27.60
2022-09-25T19:47:14.053Z,16.67
2022-09-25T19:50:01.990Z,14.80
2022-09-25T19:52:44.821Z,15.98
2022-09-25T19:55:40.980Z,12.82
2022-09-25T20:01:04.158Z,12.25
2022-09-25T20:03:45.011Z,12.13
2022-09-25T20:06:18.994Z,12.98
2022-09-25T20:09:13.057Z,12.85
2022-09-25T20:11:54.014Z,12.02
2022-09-25T20:14:35.094Z,12.15
2022-09-25T20:17:16.017Z,11.93
2022-09-25T20:20:04.025Z,13.52
2022-09-25T20:22:37.934Z,11.48
2022-09-25T20:25:26.020Z,13.52
2022-09-25T20:28:06.995Z,11.93
2022-09-25T20:30:55.063Z,12.65
2022-09-25T20:33:33.874Z,13.18
2022-09-25T20:36:22.047Z,12.25
2022-09-25T20:38:56.799Z,12.63
2022-09-25T20:41:44.014Z,12.90
2022-09-25T20:44:24.001Z,14.07
2022-09-25T20:47:12.005Z,11.15
2022-09-25T20:49:59.010Z,11.55
2022-09-25T20:52:33.593Z,12.50
2022-09-25T20:55:21.002Z,13.50
2022-09-25T20:57:55.138Z,15.80
2022-09-25T21:00:42.011Z,14.77
2022-09-25T21:03:16.111Z,15.18
2022-09-25T21:06:06.019Z,16.58
2022-09-25T21:08:47.040Z,14.98
2022-09-25T21:11:42.000Z,13.70
2022-09-25T21:14:31.006Z,14.75
2022-09-25T21:17:12.089Z,27.17
2022-09-25T21:20:06.987Z,34.33
2022-09-25T21:22:55.015Z,31.27
2022-09-25T21:25:29.485Z,34.65
2022-09-25T21:28:16.039Z,34.25
2022-09-25T21:30:57.082Z,35.30
2022-09-25T21:33:38.074Z,36.15
2022-09-25T21:36:27.055Z,35.28
2022-09-25T21:39:01.294Z,35.80
2022-09-25T21:41:49.060Z,35.10
2022-09-25T21:44:24.851Z,31.13
2022-09-25T21:47:13.028Z,26.95
2022-09-25T21:49:54.038Z,27.73
2022-09-25T21:52:35.071Z,25.95
2022-09-25T21:55:16.030Z,29.27
2022-09-25T21:57:57.085Z,28.60
2022-09-25T22:00:44.059Z,29.00
2022-09-25T22:03:18.134Z,28.65
2022-09-25T22:06:11.028Z,27.73
2022-09-25T22:08:50.119Z,27.90
2022-09-25T22:11:38.034Z,32.60
2022-09-25T22:14:16.060Z,27.02
2022-09-25T22:17:03.068Z,35.05
2022-09-25T22:19:44.070Z,29.67
2022-09-25T22:22:38.019Z,21.15
2022-09-25T22:27:59.106Z,21.25
2022-09-25T22:30:46.077Z,19.38
2022-09-25T22:33:20.104Z,19.77
2022-09-25T22:36:08.029Z,19.35
2022-09-25T22:38:42.102Z,21.13
2022-09-25T22:41:30.038Z,18.95
2022-09-25T22:44:11.041Z,21.17
2022-09-25T22:47:05.059Z,24.05
2022-09-25T22:49:59.036Z,27.60
2022-09-25T22:55:20.053Z,25.73
2022-09-25T22:58:01.022Z,24.48
2022-09-25T23:00:50.107Z,22.20
2022-09-25T23:03:25.095Z,22.23
2022-09-25T23:06:13.070Z,21.05
2022-09-25T23:08:54.046Z,23.35
2022-09-25T23:11:42.025Z,22.35
2022-09-25T23:14:30.044Z,22.25
2022-09-25T23:17:24.024Z,21.90
2022-09-25T23:20:12.065Z,22.95
2022-09-25T23:22:46.106Z,23.38
2022-09-25T23:25:34.057Z,22.35
2022-09-25T23:28:09.129Z,21.50
2022-09-25T23:30:56.167Z,21.52
2022-09-25T23:33:30.272Z,22.02
2022-09-25T23:36:19.034Z,23.60
2022-09-25T23:38:54.203Z,23.50
2022-09-25T23:41:45.045Z,21.27
2022-09-25T23:44:26.053Z,21.50
2022-09-25T23:47:13.047Z,21.55
2022-09-25T23:49:47.135Z,20.92
2022-09-25T23:52:35.060Z,22.23
2022-09-25T23:55:09.091Z,21.25
2022-09-25T23:57:56.084Z,19.52
